Time;durP1;ratioP1;P1;durP2;ratioP2;P2;SDS_P1;SDS_P2;PMS_P1;PMS_P2;Temp;Humidity;BMP_temperature;BMP_pressure;BME280_temperature;BME280_humidity;BME280_pressure;Samples;Min_cycle;Max_cycle;Signal;HPM_P1;HPM_P2
2021/08/22 00:02:02;;;;;;;11.70;10.53;;;20.30;99.90;;;;;;4983539;28;20434;-92
2021/08/22 00:12:55;;;;;;;;;;;;;;;;;;;;;
2021/08/22 00:20:55;;;;;;;9.30;8.47;;;19.10;99.90;;;;;;5672496;23;21537;-92
2021/08/22 01:01:06;;;;;;;5.60;5.30;;;18.50;99.90;;;;;;5988304;23;20597;-91
2021/08/22 01:58:56;;;;;;;4.93;4.77;;;17.90;99.90;;;;;;5038438;23;20542;-90
2021/08/22 02:25:27;;;;;;;5.43;5.23;;;17.90;99.90;;;;;;5244882;23;21154;-91
2021/08/22 02:28:33;;;;;;;5.83;5.53;;;19.00;99.90;;;;;;5008286;23;20554;-88
2021/08/22 03:07:32;;;;;;;8.73;7.93;;;18.30;99.90;;;;;;5313827;22;21647;-92
2021/08/22 03:10:02;;;;;;;8.07;7.47;;;20.00;99.90;;;;;;4980303;28;20450;-91
2021/08/22 03:12:40;;;;;;;9.27;8.57;;;20.10;99.90;;;;;;4981616;29;20406;-92
2021/08/22 03:15:40;;;;;;;9.97;9.07;;;20.70;99.90;;;;;;4962848;28;20430;-92
2021/08/22 03:18:28;;;;;;;11.37;10.57;;;17.80;99.90;;;;;;4962640;28;20513;-92
2021/08/22 03:21:15;;;;;;;10.97;10.20;;;21.10;99.90;;;;;;4979583;28;20407;-92
2021/08/22 03:24:06;;;;;;;12.30;11.20;;;19.40;99.90;;;;;;4979109;28;20422;-92
2021/08/22 03:26:45;;;;;;;13.33;12.20;;;19.40;99.90;;;;;;4948822;28;20387;-93
2021/08/22 03:29:20;;;;;;;13.37;12.27;;;18.30;99.90;;;;;;4963616;28;20419;-92
2021/08/22 03:31:49;;;;;;;16.27;14.80;;;19.30;99.90;;;;;;4957699;29;20460;-93
2021/08/22 03:42:05;;;;;;;16.10;14.60;;;18.20;99.90;;;;;;5058963;23;20483;-91
2021/08/22 03:44:35;;;;;;;17.47;15.83;;;18.90;99.90;;;;;;4981896;28;20504;-92
2021/08/22 03:57:37;;;;;;;16.97;15.37;;;18.30;99.90;;;;;;5209081;23;20473;-91
2021/08/22 04:00:04;;;;;;;15.87;13.43;;;19.10;99.90;;;;;;4960752;28;20476;-93
2021/08/22 04:10:47;;;;;;;16.53;15.13;;;18.40;99.90;;;;;;4984445;23;20484;-92
2021/08/22 04:28:50;;;;;;;17.20;15.63;;;18.40;99.90;;;;;;5242350;23;20507;-91
2021/08/22 04:36:54;;;;;;;18.37;16.60;;;18.40;99.90;;;;;;5549950;23;20506;-91
2021/08/22 04:41:55;;;;;;;17.77;16.10;;;18.50;99.90;;;;;;5543991;23;20469;-92
2021/08/22 04:52:34;;;;;;;17.70;16.30;;;18.40;99.90;;;;;;5075897;23;20488;-91
2021/08/22 04:55:02;;;;;;;19.30;17.67;;;19.80;99.90;;;;;;4978464;28;20417;-92
2021/08/22 04:58:09;;;;;;;18.63;16.73;;;20.00;99.90;;;;;;4992954;28;20457;-91
2021/08/22 05:00:39;;;;;;;17.93;15.80;;;19.60;99.90;;;;;;4986654;28;20456;-92
2021/08/22 05:03:20;;;;;;;19.40;17.60;;;20.40;99.90;;;;;;4978160;28;20481;-91
2021/08/22 05:06:08;;;;;;;18.20;16.60;;;17.70;99.90;;;;;;4995833;28;20425;-93
2021/08/22 05:08:47;;;;;;;14.13;12.83;;;18.40;99.90;;;;;;4977885;28;20803;-91
2021/08/22 05:11:47;;;;;;;16.53;15.03;;;17.00;99.90;;;;;;4978092;28;20461;-92
2021/08/22 05:15:17;;;;;;;17.97;16.20;;;19.10;99.90;;;;;;4955854;28;20427;-92
2021/08/22 05:17:49;;;;;;;17.30;15.73;;;21.00;99.90;;;;;;4995610;28;20425;-92
2021/08/22 05:20:23;;;;;;;17.50;15.80;;;20.60;99.90;;;;;;4996215;28;20893;-93
2021/08/22 05:23:22;;;;;;;17.57;16.07;;;19.90;99.90;;;;;;4997965;28;20429;-93
2021/08/22 05:26:26;;;;;;;17.70;15.83;;;19.10;99.90;;;;;;4972717;28;20416;-92
2021/08/22 05:29:05;;;;;;;16.43;14.63;;;20.00;99.90;;;;;;4993188;28;20443;-91
2021/08/22 05:31:33;;;;;;;17.30;15.80;;;18.80;99.90;;;;;;4981376;28;20468;-92
2021/08/22 05:33:59;;;;;;;18.97;17.17;;;18.40;99.90;;;;;;4978864;28;20995;-91
2021/08/22 05:47:18;;;;;;;17.93;16.03;;;18.70;99.90;;;;;;5417073;23;20472;-92
2021/08/22 05:52:21;;;;;;;16.70;15.13;;;18.70;99.90;;;;;;5069674;23;20484;-93
2021/08/22 05:54:46;;;;;;;19.73;15.80;;;21.30;99.90;;;;;;4958447;28;20418;-91
2021/08/22 05:57:35;;;;;;;18.37;16.00;;;18.70;99.90;;;;;;4960114;28;20453;-93
2021/08/22 06:00:15;;;;;;;;;;;;;;;;;;;;;
2021/08/22 06:02:44;;;;;;;17.23;15.40;;;18.80;99.90;;;;;;4961281;28;20457;-91
2021/08/22 06:05:41;;;;;;;19.37;17.50;;;19.60;99.90;;;;;;4974678;28;20434;-93
2021/08/22 06:08:09;;;;;;;17.53;15.63;;;19.40;99.90;;;;;;4945747;28;20422;-92
2021/08/22 06:19:05;;;;;;;19.50;17.37;;;19.00;99.90;;;;;;5486916;23;20863;-92
2021/08/22 06:21:34;;;;;;;17.30;15.57;;;20.80;99.90;;;;;;4981134;28;20410;-92
2021/08/22 06:24:20;;;;;;;17.90;16.07;;;19.70;99.90;;;;;;4997695;28;20433;-91
2021/08/22 06:27:31;;;;;;;16.43;14.70;;;18.80;99.90;;;;;;4979610;28;20425;-93
2021/08/22 06:30:51;;;;;;;18.77;16.90;;;18.60;99.90;;;;;;4982014;28;20638;-92
2021/08/22 06:33:24;;;;;;;17.67;15.87;;;20.10;99.90;;;;;;4999422;28;20496;-93
2021/08/22 06:36:05;;;;;;;15.83;14.20;;;19.70;99.90;;;;;;4981483;28;20441;-92
2021/08/22 06:38:30;;;;;;;17.17;15.37;;;19.00;99.90;;;;;;4983672;28;20409;-91
2021/08/22 06:41:14;;;;;;;17.37;15.40;;;21.10;99.90;;;;;;4983478;28;20461;-94
2021/08/22 06:44:06;;;;;;;18.30;16.40;;;20.10;99.90;;;;;;4982853;28;20170;-93
2021/08/22 06:47:01;;;;;;;20.20;18.10;;;19.90;99.90;;;;;;4965441;28;20489;-93
2021/08/22 06:50:02;;;;;;;21.10;18.83;;;20.50;99.40;;;;;;4979563;28;20417;-91
2021/08/22 06:52:43;;;;;;;21.13;18.93;;;19.40;99.40;;;;;;4981888;28;20433;-92
2021/08/22 06:55:55;;;;;;;21.90;19.60;;;20.10;99.90;;;;;;4982844;28;20405;-91
2021/08/22 06:59:02;;;;;;;20.83;18.73;;;20.20;99.60;;;;;;4981789;28;20445;-94
2021/08/22 07:01:30;;;;;;;23.20;20.70;;;20.20;99.20;;;;;;4978118;28;20433;-91
2021/08/22 07:03:58;;;;;;;24.03;20.73;;;19.20;99.90;;;;;;4964718;28;20429;-91
2021/08/22 07:06:30;;;;;;;21.00;18.80;;;21.60;99.90;;;;;;4998491;28;20421;-93
2021/08/22 07:09:09;;;;;;;22.10;20.00;;;20.60;98.10;;;;;;4979807;28;20425;-93
2021/08/22 07:11:34;;;;;;;20.53;18.53;;;21.20;98.70;;;;;;4979689;28;20513;-92
2021/08/22 07:17:17;;;;;;;20.37;18.37;;;19.10;94.20;;;;;;4998301;28;20173;-92
2021/08/22 07:19:51;;;;;;;20.20;18.60;;;21.00;95.60;;;;;;5052367;23;20529;-89
2021/08/22 07:22:17;;;;;;;20.77;18.87;;;20.70;93.80;;;;;;4996276;28;20862;-90
2021/08/22 07:24:46;;;;;;;19.23;16.63;;;20.00;93.50;;;;;;4985962;28;20467;-90
2021/08/22 07:27:11;;;;;;;19.43;17.63;;;22.50;94.20;;;;;;4983378;28;20545;-90
2021/08/22 07:29:37;;;;;;;19.77;17.87;;;21.90;94.50;;;;;;4982003;28;20433;-89
2021/08/22 07:32:04;;;;;;;19.40;17.60;;;20.60;95.00;;;;;;4998801;28;20577;-90
2021/08/22 07:34:30;;;;;;;18.40;16.73;;;20.50;93.00;;;;;;4981653;28;20425;-89
2021/08/22 07:36:56;;;;;;;19.20;17.57;;;22.20;93.80;;;;;;5000022;28;20488;-90
2021/08/22 07:39:21;;;;;;;17.67;15.97;;;22.80;94.00;;;;;;4989070;28;20181;-89
2021/08/22 07:41:50;;;;;;;15.20;14.00;;;20.50;90.90;;;;;;4987621;28;20823;-89
2021/08/22 07:44:15;;;;;;;14.53;13.30;;;22.50;93.50;;;;;;4981143;28;20177;-89
2021/08/22 07:46:41;;;;;;;13.50;12.50;;;23.80;90.30;;;;;;4998278;28;20439;-89
2021/08/22 07:49:10;;;;;;;13.02;11.82;;;25.30;82.90;;;;;;4636217;28;10000653;-90
2021/08/22 07:51:35;;;;;;;12.33;11.53;;;24.80;77.60;;;;;;4979971;28;20216;-90
2021/08/22 07:54:14;;;;;;;;;;;;;;;;;;;;;
2021/08/22 07:56:45;;;;;;;12.40;11.40;;;24.90;71.80;;;;;;4997597;28;20252;-90
2021/08/22 07:59:12;;;;;;;13.53;12.33;;;24.60;67.80;;;;;;5000356;28;20419;-91
2021/08/22 08:01:40;;;;;;;12.13;11.07;;;23.70;72.10;;;;;;4982958;28;20425;-90
2021/08/22 08:04:12;;;;;;;10.80;9.90;;;23.30;77.00;;;;;;4980228;28;20424;-91
2021/08/22 08:06:38;;;;;;;11.17;10.37;;;23.50;75.50;;;;;;4980886;28;20432;-91
2021/08/22 08:09:04;;;;;;;10.70;9.77;;;25.40;75.00;;;;;;4993772;28;20421;-90
2021/08/22 08:11:30;;;;;;;9.50;8.80;;;23.40;72.40;;;;;;4987288;28;20266;-90
2021/08/22 08:13:59;;;;;;;9.50;8.80;;;23.70;72.40;;;;;;4994803;28;20507;-90
2021/08/22 08:16:29;;;;;;;10.10;9.40;;;23.20;71.30;;;;;;4980359;28;20428;-90
2021/08/22 08:18:55;;;;;;;9.87;9.10;;;23.50;75.70;;;;;;4960002;28;20417;-90
2021/08/22 08:21:21;;;;;;;9.20;8.60;;;22.60;75.40;;;;;;4965342;28;20458;-89
2021/08/22 08:23:46;;;;;;;10.13;9.23;;;23.00;78.90;;;;;;4956783;29;20183;-91
2021/08/22 08:26:14;;;;;;;10.47;9.77;;;23.90;82.10;;;;;;4942716;29;20174;-89
2021/08/22 08:28:42;;;;;;;10.20;9.30;;;23.80;82.00;;;;;;4959857;29;20185;-89
2021/08/22 08:31:17;;;;;;;10.50;9.60;;;21.60;80.80;;;;;;4942469;29;20492;-90
2021/08/22 08:33:43;;;;;;;9.80;9.17;;;21.30;85.10;;;;;;4960548;29;20426;-90
2021/08/22 08:36:11;;;;;;;9.97;9.03;;;23.30;91.00;;;;;;4963816;28;20485;-92
2021/08/22 08:38:37;;;;;;;9.60;8.77;;;22.90;93.00;;;;;;4980479;28;20169;-90
2021/08/22 08:41:05;;;;;;;10.43;9.07;;;23.50;90.80;;;;;;4963569;28;20944;-90
2021/08/22 08:43:31;;;;;;;9.30;8.47;;;21.40;87.30;;;;;;4960554;28;20265;-89
2021/08/22 08:46:09;;;;;;;8.60;8.03;;;23.80;90.40;;;;;;4961971;28;20413;-91
2021/08/22 08:48:56;;;;;;;8.17;7.50;;;24.80;83.00;;;;;;4961502;28;20842;-90
2021/08/22 08:51:49;;;;;;;8.20;7.67;;;24.70;83.70;;;;;;4964151;28;20473;-90
2021/08/22 08:54:47;;;;;;;9.77;9.03;;;22.90;74.80;;;;;;4980927;28;20409;-91
2021/08/22 08:57:14;;;;;;;7.70;7.30;;;21.00;73.80;;;;;;4965767;28;20481;-90
2021/08/22 08:59:43;;;;;;;8.57;7.93;;;24.00;88.00;;;;;;4965025;28;20417;-91
2021/08/22 09:02:09;;;;;;;8.33;7.73;;;21.70;77.90;;;;;;4965646;28;20483;-92
2021/08/22 09:05:08;;;;;;;8.70;8.07;;;25.40;86.20;;;;;;4966712;28;20405;-87
2021/08/22 09:07:58;;;;;;;8.80;8.10;;;24.30;83.70;;;;;;4983500;28;20437;-91
2021/08/22 09:10:47;;;;;;;8.70;8.20;;;21.80;78.30;;;;;;4981438;28;20457;-92
2021/08/22 09:13:38;;;;;;;10.60;9.80;;;21.90;79.80;;;;;;4962991;28;20747;-90
2021/08/22 09:16:21;;;;;;;9.67;8.87;;;21.70;81.60;;;;;;4963764;28;20429;-90
2021/08/22 09:19:02;;;;;;;9.13;8.33;;;21.40;84.40;;;;;;4981113;28;20413;-91
2021/08/22 09:22:08;;;;;;;9.33;8.63;;;23.40;88.90;;;;;;4965255;28;20483;-92
2021/08/22 09:24:52;;;;;;;9.70;8.70;;;21.90;80.90;;;;;;4982555;28;20773;-89
2021/08/22 09:27:55;;;;;;;8.83;8.23;;;21.50;80.80;;;;;;4965619;28;20433;-91
2021/08/22 09:30:40;;;;;;;10.07;9.33;;;21.90;80.70;;;;;;4965636;28;20452;-90
2021/08/22 09:33:43;;;;;;;8.87;8.37;;;21.80;82.30;;;;;;4986177;28;20512;-92
2021/08/22 09:36:15;;;;;;;9.80;8.93;;;21.70;82.90;;;;;;4978193;28;20413;-92
2021/08/22 09:39:32;;;;;;;10.53;9.43;;;21.70;84.80;;;;;;4989634;28;20964;-90
2021/08/22 09:42:38;;;;;;;9.70;9.00;;;22.40;83.80;;;;;;4977744;28;20477;-90
2021/08/22 09:45:45;;;;;;;11.63;10.80;;;21.90;85.50;;;;;;4977708;28;20424;-94
2021/08/22 09:48:54;;;;;;;13.33;11.37;;;23.40;90.00;;;;;;4989898;28;20409;-92
2021/08/22 09:52:19;;;;;;;;;;;;;;;;;;;;;
2021/08/22 09:58:26;;;;;;;8.03;7.23;;;25.00;77.50;;;;;;5016352;28;20452;-94
2021/08/22 10:07:22;;;;;;;;;;;;;;;;;;;;;
2021/08/22 10:09:55;;;;;;;4.50;4.40;;;28.50;55.60;;;;;;4978635;28;20461;-93
2021/08/22 10:12:23;;;;;;;4.83;4.63;;;27.80;54.90;;;;;;4960428;29;20453;-92
2021/08/22 10:15:38;;;;;;;4.60;4.50;;;28.40;54.00;;;;;;4957942;29;20417;-91
2021/08/22 10:18:03;;;;;;;5.50;5.20;;;27.30;52.90;;;;;;4966909;28;20441;-93
2021/08/22 10:21:39;;;;;;;5.53;5.33;;;26.60;55.50;;;;;;4976041;28;20442;-91
2021/08/22 10:27:57;;;;;;;5.43;5.23;;;25.10;56.70;;;;;;4907764;29;20421;-91
2021/08/22 10:30:49;;;;;;;5.30;5.00;;;25.60;59.90;;;;;;4914782;29;20515;-93
2021/08/22 10:33:47;;;;;;;3.90;3.80;;;26.60;59.70;;;;;;4944716;28;20433;-92
2021/08/22 10:37:06;;;;;;;4.17;4.03;;;26.00;57.20;;;;;;4995919;28;20493;-92
2021/08/22 10:39:54;;;;;;;;;;;;;;;;;;;;;
2021/08/22 10:42:42;;;;;;;4.83;4.43;;;26.00;55.50;;;;;;4949237;28;20452;-93
2021/08/22 10:45:34;;;;;;;4.23;4.13;;;25.70;55.00;;;;;;4967312;28;20413;-90
2021/08/22 10:48:32;;;;;;;3.90;3.80;;;24.40;54.00;;;;;;4978500;28;20440;-93
2021/08/22 10:51:04;;;;;;;4.27;4.17;;;29.90;55.60;;;;;;4979176;28;20480;-92
2021/08/22 10:54:13;;;;;;;;;;;;;;;;;;;;;
2021/08/22 10:56:41;;;;;;;4.20;3.60;;;27.10;51.10;;;;;;4981693;28;20929;-92
2021/08/22 10:59:15;;;;;;;4.30;4.20;;;27.80;51.60;;;;;;4980806;28;20429;-89
2021/08/22 11:02:10;;;;;;;4.00;3.80;;;28.70;49.60;;;;;;4982260;28;20905;-94
2021/08/22 11:04:38;;;;;;;3.37;3.27;;;28.50;48.60;;;;;;4998755;28;20437;-93
2021/08/22 11:07:23;;;;;;;3.13;3.00;;;29.50;49.30;;;;;;4982602;28;20421;-92
2021/08/22 11:09:54;;;;;;;4.00;3.80;;;30.10;48.10;;;;;;5000340;28;20409;-93
2021/08/22 11:12:38;;;;;;;3.47;3.37;;;30.20;46.50;;;;;;4983246;28;20441;-90
2021/08/22 11:15:05;;;;;;;3.93;3.73;;;31.10;44.10;;;;;;4966444;28;20410;-93
2021/08/22 11:17:31;;;;;;;3.07;2.97;;;32.10;44.80;;;;;;4982402;28;20406;-93
2021/08/22 11:20:19;;;;;;;3.20;3.10;;;32.10;43.00;;;;;;4980452;28;20437;-91
2021/08/22 11:22:51;;;;;;;3.10;3.00;;;32.00;42.40;;;;;;4980447;28;20945;-91
2021/08/22 11:25:33;;;;;;;3.63;3.43;;;32.30;41.40;;;;;;4973244;28;20460;-94
2021/08/22 11:28:08;;;;;;;3.90;3.70;;;32.40;40.40;;;;;;4971545;28;20791;-91
2021/08/22 11:30:37;;;;;;;4.20;4.00;;;31.90;40.40;;;;;;4988679;28;20472;-90
2021/08/22 11:33:03;;;;;;;4.33;3.93;;;29.80;41.30;;;;;;4990175;28;20493;-90
2021/08/22 11:35:30;;;;;;;6.13;3.50;;;29.20;43.00;;;;;;4973675;28;20425;-94
2021/08/22 11:37:59;;;;;;;4.20;4.10;;;29.00;45.40;;;;;;4991257;28;20413;-93
2021/08/22 11:40:26;;;;;;;3.63;3.53;;;28.80;47.90;;;;;;4958682;28;20460;-93
2021/08/22 11:43:17;;;;;;;3.77;3.67;;;27.60;48.90;;;;;;4955130;28;20444;-92
2021/08/22 11:45:44;;;;;;;3.20;3.10;;;27.50;44.40;;;;;;4966131;28;20417;-91
2021/08/22 11:48:25;;;;;;;3.23;3.13;;;29.80;44.70;;;;;;4987228;28;20413;-91
2021/08/22 11:50:59;;;;;;;3.70;3.40;;;29.90;44.60;;;;;;4984061;28;20492;-90
2021/08/22 11:53:30;;;;;;;4.00;3.70;;;30.70;44.50;;;;;;4967758;28;20524;-91
2021/08/22 11:55:56;;;;;;;3.13;3.03;;;29.60;43.30;;;;;;4968122;28;20425;-93
2021/08/22 11:58:22;;;;;;;3.80;3.70;;;28.70;44.00;;;;;;4968618;28;20484;-92
2021/08/22 12:00:57;;;;;;;4.63;3.73;;;29.30;43.30;;;;;;4987251;28;20201;-92
2021/08/22 12:03:28;;;;;;;3.23;3.10;;;29.90;42.70;;;;;;4973592;28;20516;-89
2021/08/22 12:06:26;;;;;;;4.43;4.20;;;30.50;41.60;;;;;;4971215;28;20469;-91
2021/08/22 12:09:03;;;;;;;3.20;3.10;;;;;;;;;;4948727;28;20493;-92
2021/08/22 12:11:38;;;;;;;5.20;3.80;;;31.10;41.40;;;;;;4934276;29;20484;-92
2021/08/22 12:14:26;;;;;;;;;;;;;;;;;;;;;
2021/08/22 12:17:03;;;;;;;3.70;3.50;;;32.70;40.80;;;;;;4950064;29;20478;-92
2021/08/22 12:19:53;;;;;;;2.97;2.97;;;31.50;39.00;;;;;;4947013;29;20415;-92
2021/08/22 12:22:28;;;;;;;3.70;3.60;;;31.70;40.60;;;;;;4947796;29;20506;-91
2021/08/22 12:25:14;;;;;;;4.03;3.73;;;31.10;39.30;;;;;;4947314;29;20779;-89
2021/08/22 12:27:43;;;;;;;4.07;3.87;;;31.10;41.00;;;;;;4948367;29;20419;-92
2021/08/22 12:30:40;;;;;;;;;;;;;;;;;;;;;
2021/08/22 12:33:40;;;;;;;5.23;4.73;;;31.20;40.10;;;;;;4951268;28;20470;-91
2021/08/22 12:36:24;;;;;;;5.67;5.07;;;31.20;39.30;;;;;;4947620;29;20407;-92
2021/08/22 12:38:53;;;;;;;3.30;3.20;;;31.40;40.10;;;;;;4947288;29;20419;-91
2021/08/22 12:41:48;;;;;;;3.13;3.03;;;33.60;40.90;;;;;;4948806;29;20431;-92
2021/08/22 12:44:45;;;;;;;3.50;3.20;;;32.40;38.30;;;;;;4951282;29;20438;-90
2021/08/22 12:47:12;;;;;;;3.53;3.43;;;31.10;37.60;;;;;;4947266;29;20425;-89
2021/08/22 12:49:38;;;;;;;4.17;3.87;;;31.00;38.10;;;;;;4931766;29;20490;-90
2021/08/22 12:52:15;;;;;;;3.90;3.70;;;30.30;41.10;;;;;;4947292;29;20475;-89
2021/08/22 12:55:01;;;;;;;3.33;3.23;;;31.50;41.20;;;;;;4949772;28;20171;-91
2021/08/22 12:57:27;;;;;;;3.60;3.47;;;29.40;41.30;;;;;;4948394;29;20439;-90
2021/08/22 13:00:03;;;;;;;4.03;3.83;;;28.20;42.40;;;;;;4952576;29;20457;-91
2021/08/22 13:02:38;;;;;;;2.83;2.83;;;27.80;42.40;;;;;;4965210;29;20180;-93
2021/08/22 13:05:05;;;;;;;3.70;3.60;;;27.20;43.00;;;;;;4967849;28;20457;-90
2021/08/22 13:07:53;;;;;;;3.60;3.50;;;27.00;46.00;;;;;;4948818;29;20430;-89
2021/08/22 13:10:38;;;;;;;4.10;4.00;;;27.10;44.60;;;;;;4949044;29;20465;-92
2021/08/22 13:13:08;;;;;;;4.37;4.10;;;27.50;45.80;;;;;;4951475;29;20433;-90
2021/08/22 13:15:39;;;;;;;4.13;4.03;;;27.40;44.50;;;;;;4949521;29;20438;-93
2021/08/22 13:18:05;;;;;;;4.63;4.23;;;27.20;45.10;;;;;;4949795;29;20426;-93
2021/08/22 13:20:34;;;;;;;5.00;4.80;;;27.50;45.60;;;;;;4951012;29;20476;-91
2021/08/22 13:23:00;;;;;;;4.20;4.00;;;28.60;44.50;;;;;;4966760;28;20186;-92
2021/08/22 13:25:31;;;;;;;4.37;4.17;;;28.50;45.30;;;;;;4948141;29;20823;-91
2021/08/22 13:27:57;;;;;;;5.10;4.80;;;27.10;44.30;;;;;;4933399;29;20215;-92
2021/08/22 13:30:34;;;;;;;4.93;4.63;;;28.70;47.10;;;;;;4975498;28;20453;-91
2021/08/22 13:33:03;;;;;;;5.07;4.87;;;26.50;47.30;;;;;;4988750;28;20424;-93
2021/08/22 13:35:38;;;;;;;5.50;4.60;;;27.10;49.60;;;;;;4970839;28;20425;-92
2021/08/22 13:38:04;;;;;;;8.77;8.10;;;26.20;49.20;;;;;;4952495;28;20451;-87
2021/08/22 13:40:40;;;;;;;6.23;5.63;;;26.70;48.60;;;;;;4938156;28;20428;-90
2021/08/22 13:43:14;;;;;;;4.93;4.67;;;28.10;49.00;;;;;;4953928;28;20481;-90
2021/08/22 13:45:43;;;;;;;5.53;4.90;;;26.40;48.30;;;;;;4950508;29;20399;-92
2021/08/22 13:48:18;;;;;;;5.00;4.70;;;26.80;49.90;;;;;;4949051;29;20426;-91
2021/08/22 13:50:45;;;;;;;3.80;3.70;;;25.60;49.90;;;;;;4951522;29;20479;-94
2021/08/22 13:53:24;;;;;;;4.00;3.80;;;24.50;50.50;;;;;;4935798;29;20450;-91
2021/08/22 13:56:07;;;;;;;4.90;4.40;;;25.10;51.30;;;;;;4951288;29;20455;-92
2021/08/22 13:58:36;;;;;;;4.33;3.83;;;25.10;51.10;;;;;;4935869;29;20446;-92
2021/08/22 14:01:33;;;;;;;4.27;4.07;;;25.10;51.60;;;;;;4953440;28;20419;-89
2021/08/22 14:04:02;;;;;;;2.90;2.90;;;25.50;50.70;;;;;;4954997;29;20412;-90
2021/08/22 14:06:30;;;;;;;3.07;2.90;;;27.60;51.50;;;;;;4955584;28;20479;-91
2021/08/22 14:08:56;;;;;;;5.17;4.97;;;26.20;50.80;;;;;;4956980;29;20419;-92
2021/08/22 14:11:22;;;;;;;2.23;2.23;;;28.70;49.40;;;;;;4955300;29;20498;-90
2021/08/22 14:13:49;;;;;;;2.73;2.53;;;28.10;46.80;;;;;;4955213;29;20423;-92
2021/08/22 14:16:30;;;;;;;2.83;2.73;;;30.80;47.70;;;;;;4956667;29;20427;-90
2021/08/22 14:18:58;;;;;;;2.83;2.67;;;28.80;45.60;;;;;;4955609;29;20427;-89
2021/08/22 14:21:27;;;;;;;2.60;2.60;;;28.40;46.80;;;;;;4958533;28;20442;-94
2021/08/22 14:23:54;;;;;;;2.57;2.47;;;30.40;46.90;;;;;;4958321;28;20462;-93
2021/08/22 14:26:23;;;;;;;2.33;2.33;;;29.20;45.80;;;;;;4958416;28;20419;-88
2021/08/22 14:28:49;;;;;;;2.73;2.63;;;29.40;45.90;;;;;;4958923;28;20435;-91
2021/08/22 14:31:19;;;;;;;2.70;2.60;;;29.70;45.70;;;;;;4974002;28;20476;-90
2021/08/22 14:33:54;;;;;;;2.57;2.57;;;30.00;45.30;;;;;;4957779;28;20211;-92
2021/08/22 14:36:25;;;;;;;2.50;2.40;;;31.20;45.60;;;;;;4941514;28;20435;-92
2021/08/22 14:41:36;;;;;;;2.60;2.60;;;29.60;44.20;;;;;;5060978;23;20492;-91
2021/08/22 14:44:05;;;;;;;2.30;2.20;;;29.90;45.10;;;;;;4998544;28;20424;-91
2021/08/22 14:46:52;;;;;;;;;;;;;;;;;;;;;
2021/08/22 14:50:02;;;;;;;2.60;2.47;;;29.30;45.20;;;;;;4998863;28;20409;-91
2021/08/22 14:53:10;;;;;;;2.50;2.40;;;29.40;44.10;;;;;;5019714;28;20409;-92
2021/08/22 14:55:52;;;;;;;2.33;2.23;;;29.50;44.30;;;;;;5002248;28;20432;-91
2021/08/22 14:58:46;;;;;;;;;;;;;;;;;;;;;
2021/08/22 15:01:15;;;;;;;3.00;2.33;;;28.40;44.90;;;;;;5018352;28;20427;-89
2021/08/22 15:03:43;;;;;;;2.53;2.50;;;28.40;47.20;;;;;;5002200;28;20429;-91
2021/08/22 15:06:23;;;;;;;4.13;3.93;;;27.20;48.70;;;;;;4993527;28;20423;-92
2021/08/22 15:09:03;;;;;;;1.77;1.77;;;27.10;48.00;;;;;;5114826;23;20477;-91
2021/08/22 15:12:16;;;;;;;2.07;2.07;;;26.40;49.20;;;;;;4996632;28;20485;-90
2021/08/22 15:18:43;;;;;;;1.90;1.90;;;25.50;49.70;;;;;;4996376;28;20434;-90
2021/08/22 15:21:47;;;;;;;1.97;1.90;;;27.00;51.80;;;;;;4957370;28;20450;-92
2021/08/22 15:24:43;;;;;;;1.90;1.90;;;25.30;51.20;;;;;;4986294;23;20604;-89
2021/08/22 15:27:42;;;;;;;2.00;2.00;;;24.60;51.60;;;;;;4960318;29;20454;-91
2021/08/22 15:30:29;;;;;;;2.47;2.30;;;24.70;52.70;;;;;;4963026;28;20418;-92
2021/08/22 15:33:03;;;;;;;2.50;2.50;;;24.70;52.70;;;;;;4960649;28;20437;-91
2021/08/22 15:39:21;;;;;;;;;;;;;;;;;;;;;
2021/08/22 15:44:58;;;;;;;1.80;1.80;;;24.50;52.70;;;;;;4940644;29;20437;-92
2021/08/22 15:47:24;;;;;;;1.97;1.97;;;24.40;52.90;;;;;;4968653;29;20441;-90
2021/08/22 15:50:00;;;;;;;2.03;2.03;;;24.40;54.70;;;;;;4951952;29;20426;-91
2021/08/22 15:52:57;;;;;;;1.90;1.90;;;25.90;56.20;;;;;;4954388;29;20193;-93
2021/08/22 15:55:25;;;;;;;2.23;2.23;;;24.70;55.00;;;;;;4954460;29;20446;-92
2021/08/22 15:58:14;;;;;;;2.03;2.03;;;26.40;54.70;;;;;;4954810;29;20430;-93
2021/08/22 16:00:39;;;;;;;2.40;2.20;;;24.10;53.80;;;;;;4964595;28;20425;-89
2021/08/22 16:03:24;;;;;;;;;;;;;;;;;;;;;
2021/08/22 16:06:40;;;;;;;2.00;2.00;;;23.90;55.80;;;;;;4972149;29;20166;-93
2021/08/22 16:09:11;;;;;;;2.30;2.30;;;24.90;55.00;;;;;;4956357;29;20508;-93
2021/08/22 16:11:46;;;;;;;1.97;1.87;;;24.60;55.90;;;;;;4940797;29;20473;-92
2021/08/22 16:14:26;;;;;;;3.00;2.90;;;23.80;55.80;;;;;;4941478;29;20426;-92
2021/08/22 16:17:10;;;;;;;3.23;2.90;;;23.80;55.90;;;;;;4957659;29;20426;-92
2021/08/22 16:19:59;;;;;;;2.87;2.77;;;23.40;57.50;;;;;;4974581;29;20460;-91
2021/08/22 16:22:25;;;;;;;3.57;3.30;;;23.60;54.90;;;;;;4938196;29;20519;-84
2021/08/22 16:24:51;;;;;;;2.70;2.60;;;23.40;56.50;;;;;;4953857;28;20577;-84
2021/08/22 16:27:16;;;;;;;3.17;2.97;;;25.40;57.70;;;;;;4948249;28;20178;-84
2021/08/22 16:29:45;;;;;;;2.93;2.83;;;23.60;56.10;;;;;;4980038;28;20174;-91
2021/08/22 16:37:31;;;;;;;3.30;3.20;;;23.20;56.60;;;;;;2788661;23;20487;-92
2021/08/22 16:40:00;;;;;;;3.47;3.30;;;23.70;57.10;;;;;;4996361;28;20499;-91
2021/08/22 16:42:29;;;;;;;3.43;3.13;;;24.60;61.70;;;;;;5128436;23;20492;-94
2021/08/22 16:44:55;;;;;;;3.63;3.43;;;23.90;60.00;;;;;;4993243;28;20432;-94
2021/08/22 16:47:47;;;;;;;3.40;3.10;;;22.80;57.60;;;;;;5008182;28;20408;-92
2021/08/22 16:51:20;;;;;;;;;;;;;;;;;;;;;
2021/08/22 16:53:32;;;;;;;3.73;3.53;;;21.50;57.90;;;;;;4979835;28;20448;-90
2021/08/22 16:56:06;;;;;;;3.97;3.20;;;23.40;58.90;;;;;;5004793;28;20424;-91
2021/08/22 16:59:15;;;;;;;3.10;3.00;;;23.30;59.00;;;;;;4990346;28;20420;-93
2021/08/22 17:02:00;;;;;;;4.50;3.60;;;23.10;58.30;;;;;;5013422;28;20416;-94
2021/08/22 17:07:44;;;;;;;3.70;3.40;;;25.20;62.10;;;;;;5000809;23;20622;-92
2021/08/22 17:13:19;;;;;;;3.80;3.47;;;22.60;58.20;;;;;;4841032;23;20484;-93
2021/08/22 17:15:51;;;;;;;4.23;3.90;;;24.00;62.90;;;;;;5012675;28;20412;-88
2021/08/22 17:18:30;;;;;;;3.67;3.57;;;21.50;59.40;;;;;;4978315;28;20504;-94
2021/08/22 17:20:56;;;;;;;3.47;3.47;;;27.60;65.80;;;;;;4986905;28;20456;-92
2021/08/22 17:23:22;;;;;;;4.03;3.93;;;22.60;62.90;;;;;;4976815;28;20585;-89
2021/08/22 17:25:47;;;;;;;3.87;3.77;;;24.60;63.60;;;;;;5001355;28;20166;-93
2021/08/22 17:28:13;;;;;;;4.57;4.47;;;24.60;66.60;;;;;;4990683;28;20188;-89
2021/08/22 17:30:40;;;;;;;5.73;4.70;;;21.90;60.50;;;;;;4989621;28;20205;-91
2021/08/22 17:33:10;;;;;;;7.20;6.80;;;21.60;67.70;;;;;;4990560;28;20487;-94
2021/08/22 17:36:00;;;;;;;4.97;4.67;;;22.00;71.50;;;;;;4997089;28;20491;-94
2021/08/22 17:41:39;;;;;;;11.90;6.57;;;20.90;80.40;;;;;;4988655;23;20519;-90
2021/08/22 17:44:15;;;;;;;13.40;8.30;;;23.20;91.00;;;;;;4953202;29;20441;-90
2021/08/22 17:49:22;;;;;;;8.93;8.20;;;20.20;95.20;;;;;;5309334;23;21007;-91
2021/08/22 17:52:00;;;;;;;16.43;9.13;;;19.90;99.20;;;;;;4995199;28;20517;-91
2021/08/22 17:57:29;;;;;;;9.37;8.03;;;19.70;99.90;;;;;;4971814;28;20553;-90
2021/08/22 18:16:08;;;;;;;14.53;12.90;;;19.50;99.90;;;;;;4634314;23;20507;-92
2021/08/22 18:46:04;;;;;;;;;;;;;;;;;;;;;
2021/08/22 19:02:51;;;;;;;9.83;9.23;;;20.60;99.90;;;;;;5359224;23;20491;-90
2021/08/22 22:20:06;;;;;;;6.83;6.43;;;18.80;99.90;;;;;;5537006;23;20471;-88
2021/08/22 22:22:35;;;;;;;7.07;6.77;;;18.80;99.90;;;;;;5021650;28;20427;-91
2021/08/22 22:25:04;;;;;;;6.57;6.00;;;18.60;99.90;;;;;;5005065;28;20404;-89
2021/08/22 22:27:38;;;;;;;6.63;5.80;;;19.70;99.90;;;;;;4973035;28;20412;-90
2021/08/22 22:30:07;;;;;;;6.70;6.40;;;19.10;99.90;;;;;;5004513;28;20419;-90
2021/08/22 22:32:35;;;;;;;6.23;6.03;;;16.70;99.60;;;;;;5002967;28;20428;-90
2021/08/22 22:35:00;;;;;;;5.70;5.50;;;18.70;99.90;;;;;;4998208;28;20425;-90
2021/08/22 22:37:46;;;;;;;6.70;6.50;;;17.50;99.90;;;;;;4994222;28;20500;-91
2021/08/22 22:40:13;;;;;;;6.87;6.47;;;19.30;99.90;;;;;;4993009;28;20184;-91
2021/08/22 22:42:38;;;;;;;7.20;6.90;;;17.50;99.90;;;;;;5011589;28;20468;-89
2021/08/22 22:45:08;;;;;;;6.80;6.50;;;19.20;99.90;;;;;;5012073;28;20919;-90
2021/08/22 22:47:36;;;;;;;6.90;6.60;;;18.00;99.90;;;;;;4992162;28;20424;-89
2021/08/22 22:50:03;;;;;;;7.30;6.73;;;18.20;99.90;;;;;;4991951;28;20420;-91
2021/08/22 22:52:29;;;;;;;7.57;7.17;;;18.90;99.90;;;;;;4990799;28;20554;-91
2021/08/22 22:55:13;;;;;;;7.00;6.50;;;19.40;99.90;;;;;;4991840;28;20416;-91
2021/08/22 22:57:39;;;;;;;8.00;7.23;;;19.40;99.90;;;;;;5013514;28;20455;-91
2021/08/22 23:00:15;;;;;;;9.27;8.33;;;19.10;99.90;;;;;;5014944;28;20432;-91
2021/08/22 23:02:41;;;;;;;8.23;7.50;;;19.30;99.30;;;;;;4997490;28;20168;-89
2021/08/22 23:05:12;;;;;;;9.67;8.90;;;19.90;99.90;;;;;;4995772;28;20413;-90